Share

Odin, MN

West of High School (KMNMADEL2) Elev 981 ft | 44.05 °N, 94.42 °W | Change Station
Active Advisory: Fire Weather Warning

Current weather conditions updated 3 seconds ago

Scattered Clouds
Scattered Clouds
56.6 °F
Feels Like 56.6 °F
N
3.0
Wind Variable Wind from South
Gusts 6.0 mph
Sunrise 6:26 AM
Sunset 8:10 PM
Moon Waning Gibbous

Today is forecast to be Much Cooler than yesterday.

Pressure 29.89 in
Visibility 10.0 miles
Clouds Scattered Clouds 7000 ft
Dew Point 54 °F
Humidity 92%
Rainfall 0.00 in
Snow Depth Not available.
UV 0.0 out of 16
Pollen 10.50 out of 12
Air Quality Not available.
Flu Activity Sporadic
METAR KJYG 210855Z AUTO 16006KT 10SM SCT070 15/12 A2989 RMK AO2 LTG DSNT S

More Conditions Fewer Conditions

Pressure 29.89 in
Visibility 10.0 miles
Clouds Scattered Clouds 7000 ft
Dew Point 54 °F
Humidity 92%
Rainfall 0.00 in
Snow Depth Not available.
UV 0.0 out of 16
Pollen 10.50 out of 12
Air Quality Not available.
Flu Activity Sporadic
METAR KJYG 210855Z AUTO 16006KT 10SM SCT070 15/12 A2989 RMK AO2 LTG DSNT S

More Conditions Fewer Conditions

10-Day Weather Forecast

Almanac

Astronomy

Apr. 21, 2014 Rise Set
Actual Time 6:26 AM CDT 8:10 PM CDT
Civil Twilight 5:56 AM CDT 8:40 PM CDT
Nautical Twilight 5:19 AM CDT 9:18 PM CDT
Astronomical Twilight 4:39 AM CDT 9:58 PM CDT
Moon 1:43 AM CDT 11:51 AM CDT
Length of Visible Light 14h 44m
Length of Day
13h 43m
Tomorrow will be 2m 47s longer.
Waning Gibbous, 61% of the Moon is Illuminated
Today
Waning Gibbous
Apr 22
Last Quarter
Apr 29
New
May 6
First Quarter
May 14
Full

Today's Extremes

State Highs State Lows

Community

  • Snowy Robin
    Snowy Robin
  • Sun Pillar and Geese
    Sun Pillar and Geese
  • Showers on the Way
    Showers on the Way
  • Easter Morning Fog
    Easter Morning Fog
  • Easter Dance
    Easter Dance

WunderPhotos

Upload Photos

1,703,579 photos uploaded!

WunderBlogs® & News

Nearby

Snow Depth

Station Depth Elevation
No new snow has been reported.

Coastal Water Temperatures

Place Temperature
No Stations Reporting

Earthquake Activity

City Distance Mag. Time & Date
No recent earthquake activity has been reported nearby.
Minimum magnitude displayed is 2.5.

Nearby Weather Stations

Station Location Temp. Dew Point Humidity Wind Precip. Elev Updated Type
Kimball Township, Mountain Lake, MN 54.9 °F 53 °F 93% SSE  at  0.0 mph - / hr 1352 ft 2:37 AM CDT Normal
MesoWest MTLAKE , Mountain Lake, MN 58 °F - - North  at  - 0.00 in / hr 1286 ft 1:20 AM CDT MADIS
West of High School, Madelia, MN 56.6 °F 54 °F 92% South  at  3.0 mph 0.00 in / hr 981 ft 4:15 AM CDT Rapid Fire

Show More Stations Show Fewer Stations

What do you think?

We're not finished. Please let us know what you like, what you don't like, and what you are still missing.